SL8 weather

CLOSED Lac Pontbriand Water Aerodrome
Rawdon, Quebec, Canada

Public forecast

Using degrees Celsius for public forecast. Weather courtesy of forecast.io.

METAR (pilot weather report)

Closest report is Montreal International (Mirabel) Airport, 24.8 nm (45.9 km) SSW. Retrieved 2019/09/22 13:00 UTC (4 minutes ago):

CYMX 221300Z 00000KT 20SM SCT045 BKN070 18/16 A3000 RMK SC3AC4 SLP162 DENSITY ALT 700FT

TAF (pilot weather forecast)

Closest forecast is Montreal International (Mirabel) Airport, 24.8 nm (45.9 km) SSW. Retrieved 2019/09/22 12:42 UTC (22 minutes ago):

TAF CYMX 221138Z 2212/2312 VRB03KT P6SM FEW050 BECMG 2212/2214 23006KT FM221600 23012G22KT P6SM SCT040 BKN090 TEMPO 2216/2222 P6SM -SHRA BKN040 BKN090 BECMG 2222/2224 23008KT FM230200 23008KT P6SM FEW040 BKN080 TEMPO 2308/2312 P6SM -SHRA BKN040 RMK NXT FCST BY 221800Z